sensor_id;sensor_type;location;lat;lon;timestamp;pressure;altitude;pressure_sealevel;temperature;humidity
53041;BME280;39326;42.650;23.248;2022-11-18T00:00:49;91567.78;;;9.08;87.23
53041;BME280;39326;42.650;23.248;2022-11-18T00:03:15;91575.34;;;9.09;87.18
53041;BME280;39326;42.650;23.248;2022-11-18T00:05:40;91575.34;;;9.09;87.32
53041;BME280;39326;42.650;23.248;2022-11-18T00:08:06;91568.47;;;9.12;87.67
53041;BME280;39326;42.650;23.248;2022-11-18T00:10:31;91565.81;;;9.12;87.79
53041;BME280;39326;42.650;23.248;2022-11-18T00:12:57;91570.44;;;9.08;87.66
53041;BME280;39326;42.650;23.248;2022-11-18T00:15:41;91572.28;;;9.11;88.30
53041;BME280;39326;42.650;23.248;2022-11-18T00:18:07;91574.91;;;9.14;87.80
53041;BME280;39326;42.650;23.248;2022-11-18T00:20:35;91571.84;;;9.16;87.67
53041;BME280;39326;42.650;23.248;2022-11-18T00:23:01;91567.69;;;9.15;87.34
53041;BME280;39326;42.650;23.248;2022-11-18T00:25:26;91564.34;;;9.07;87.33
53041;BME280;39326;42.650;23.248;2022-11-18T00:27:53;91515.41;;;8.67;87.79
53041;BME280;39326;42.650;23.248;2022-11-18T00:30:18;91569.81;;;8.93;87.99
53041;BME280;39326;42.650;23.248;2022-11-18T00:32:44;91563.31;;;8.97;87.84
53041;BME280;39326;42.650;23.248;2022-11-18T00:35:10;91567.81;;;9.00;87.62
53041;BME280;39326;42.650;23.248;2022-11-18T00:37:36;91564.38;;;9.04;87.48
53041;BME280;39326;42.650;23.248;2022-11-18T00:40:02;91557.59;;;8.99;87.58
53041;BME280;39326;42.650;23.248;2022-11-18T00:42:27;91562.56;;;8.97;87.41
53041;BME280;39326;42.650;23.248;2022-11-18T00:45:11;91574.38;;;8.92;87.80
53041;BME280;39326;42.650;23.248;2022-11-18T00:47:36;91569.06;;;8.92;87.88
53041;BME280;39326;42.650;23.248;2022-11-18T00:50:02;91574.38;;;8.92;87.66
53041;BME280;39326;42.650;23.248;2022-11-18T00:52:27;91580.13;;;8.87;87.12
53041;BME280;39326;42.650;23.248;2022-11-18T00:54:53;91574.81;;;8.87;87.52
53041;BME280;39326;42.650;23.248;2022-11-18T00:57:18;91577.09;;;8.89;87.67
53041;BME280;39326;42.650;23.248;2022-11-18T00:59:44;91574.81;;;8.87;88.18
53041;BME280;39326;42.650;23.248;2022-11-18T01:02:09;91574.44;;;8.85;87.95
53041;BME280;39326;42.650;23.248;2022-11-18T01:04:34;91568.38;;;8.85;87.85
53041;BME280;39326;42.650;23.248;2022-11-18T01:07:00;91575.22;;;8.86;88.04
53041;BME280;39326;42.650;23.248;2022-11-18T01:09:25;91567.25;;;8.82;87.35
53041;BME280;39326;42.650;23.248;2022-11-18T01:11:51;91561.25;;;8.78;87.25
53041;BME280;39326;42.650;23.248;2022-11-18T01:14:34;91570.78;;;8.72;87.33
53041;BME280;39326;42.650;23.248;2022-11-18T01:17:00;91557.97;;;8.63;87.44
53041;BME280;39326;42.650;23.248;2022-11-18T01:19:25;91563.28;;;8.63;87.09
53041;BME280;39326;42.650;23.248;2022-11-18T01:21:51;91574.28;;;8.62;87.34
53041;BME280;39326;42.650;23.248;2022-11-18T01:24:16;91575.03;;;8.62;86.54
53041;BME280;39326;42.650;23.248;2022-11-18T01:26:42;91577.78;;;8.55;87.13
53041;BME280;39326;42.650;23.248;2022-11-18T01:29:07;91581.63;;;8.47;86.97
53041;BME280;39326;42.650;23.248;2022-11-18T01:31:33;91581.28;;;8.41;87.21
53041;BME280;39326;42.650;23.248;2022-11-18T01:33:58;91579.75;;;8.44;86.70
53041;BME280;39326;42.650;23.248;2022-11-18T01:36:26;91572.97;;;8.36;86.84
53041;BME280;39326;42.650;23.248;2022-11-18T01:38:53;91573.38;;;8.31;86.82
53041;BME280;39326;42.650;23.248;2022-11-18T01:41:21;91577.25;;;8.26;86.82
53041;BME280;39326;42.650;23.248;2022-11-18T01:46:28;91567.78;;;8.22;87.29
53041;BME280;39326;42.650;23.248;2022-11-18T01:51:29;91566.63;;;8.23;86.82
53041;BME280;39326;42.650;23.248;2022-11-18T01:54:02;91557.94;;;8.18;86.80
53041;BME280;39326;42.650;23.248;2022-11-18T01:56:37;91562.94;;;8.06;87.47
53041;BME280;39326;42.650;23.248;2022-11-18T01:59:10;91562.94;;;8.06;88.04
53041;BME280;39326;42.650;23.248;2022-11-18T02:01:36;91562.53;;;8.11;87.24
53041;BME280;39326;42.650;23.248;2022-11-18T02:04:02;91575.47;;;8.09;87.02
53041;BME280;39326;42.650;23.248;2022-11-18T02:06:27;91568.25;;;8.09;87.31
53041;BME280;39326;42.650;23.248;2022-11-18T02:08:53;91570.91;;;8.06;87.06
53041;BME280;39326;42.650;23.248;2022-11-18T02:11:20;91563.41;;;8.01;87.28
53041;BME280;39326;42.650;23.248;2022-11-18T02:14:06;91564.84;;;8.05;87.17
53041;BME280;39326;42.650;23.248;2022-11-18T02:22:34;91576.97;;;8.10;86.89
53041;BME280;39326;42.650;23.248;2022-11-18T02:31:12;91563.09;;;7.88;87.52
53041;BME280;39326;42.650;23.248;2022-11-18T02:33:50;91552.13;;;7.82;87.90
53041;BME280;39326;42.650;23.248;2022-11-18T02:36:23;91562.38;;;7.84;87.63
53041;BME280;39326;42.650;23.248;2022-11-18T02:38:56;91551.50;;;7.64;88.31
53041;BME280;39326;42.650;23.248;2022-11-18T02:41:27;91557.88;;;7.74;88.26
53041;BME280;39326;42.650;23.248;2022-11-18T02:44:05;91552.56;;;7.74;88.43
53041;BME280;39326;42.650;23.248;2022-11-18T02:46:35;91553.66;;;7.80;88.18
53041;BME280;39326;42.650;23.248;2022-11-18T02:49:06;91546.03;;;7.85;88.60
53041;BME280;39326;42.650;23.248;2022-11-18T02:51:34;91553.59;;;7.90;88.05
53041;BME280;39326;42.650;23.248;2022-11-18T02:54:04;91554.34;;;7.95;88.50
53041;BME280;39326;42.650;23.248;2022-11-18T02:56:32;91550.16;;;7.93;88.04
53041;BME280;39326;42.650;23.248;2022-11-18T02:58:58;91556.94;;;7.98;88.31
53041;BME280;39326;42.650;23.248;2022-11-18T03:01:26;91561.03;;;8.10;88.36
53041;BME280;39326;42.650;23.248;2022-11-18T03:03:52;91555.00;;;8.06;88.12
53041;BME280;39326;42.650;23.248;2022-11-18T03:06:37;91557.59;;;8.13;88.34
53041;BME280;39326;42.650;23.248;2022-11-18T03:11:32;91555.19;;;8.29;88.54
53041;BME280;39326;42.650;23.248;2022-11-18T03:16:37;91553.91;;;8.52;87.42
53041;BME280;39326;42.650;23.248;2022-11-18T03:19:06;91553.84;;;8.59;87.14
53041;BME280;39326;42.650;23.248;2022-11-18T03:21:38;91547.00;;;8.58;86.91
53041;BME280;39326;42.650;23.248;2022-11-18T03:24:30;91550.38;;;8.62;86.37
53041;BME280;39326;42.650;23.248;2022-11-18T03:27:13;91556.06;;;8.64;86.49
53041;BME280;39326;42.650;23.248;2022-11-18T03:29:50;91555.34;;;8.60;86.46
53041;BME280;39326;42.650;23.248;2022-11-18T03:32:20;91548.91;;;8.57;86.57
53041;BME280;39326;42.650;23.248;2022-11-18T03:34:50;91560.22;;;8.65;86.13
53041;BME280;39326;42.650;23.248;2022-11-18T03:37:20;91548.09;;;8.64;85.66
53041;BME280;39326;42.650;23.248;2022-11-18T03:39:52;91544.34;;;8.58;86.29
53041;BME280;39326;42.650;23.248;2022-11-18T03:42:25;91548.13;;;8.60;85.95
53041;BME280;39326;42.650;23.248;2022-11-18T03:45:00;91542.38;;;8.65;85.51
53041;BME280;39326;42.650;23.248;2022-11-18T03:47:31;91540.50;;;8.62;86.15
53041;BME280;39326;42.650;23.248;2022-11-18T03:50:26;91538.59;;;8.63;85.44
53041;BME280;39326;42.650;23.248;2022-11-18T03:52:54;91534.50;;;8.55;85.74
53041;BME280;39326;42.650;23.248;2022-11-18T03:55:22;91514.81;;;8.49;85.73
53041;BME280;39326;42.650;23.248;2022-11-18T04:00:23;91526.56;;;8.51;86.09
53041;BME280;39326;42.650;23.248;2022-11-18T04:02:52;91526.09;;;8.60;85.46
53041;BME280;39326;42.650;23.248;2022-11-18T04:05:18;91534.47;;;8.58;85.70
53041;BME280;39326;42.650;23.248;2022-11-18T04:07:55;91521.53;;;8.60;85.03
53041;BME280;39326;42.650;23.248;2022-11-18T04:10:26;91523.72;;;8.69;84.86
53041;BME280;39326;42.650;23.248;2022-11-18T04:13:36;91531.75;;;8.65;85.51
53041;BME280;39326;42.650;23.248;2022-11-18T04:15:42;91524.47;;;8.69;84.83
53041;BME280;39326;42.650;23.248;2022-11-18T04:18:09;91534.81;;;8.64;84.78
53041;BME280;39326;42.650;23.248;2022-11-18T04:20:35;91528.34;;;8.65;85.26
53041;BME280;39326;42.650;23.248;2022-11-18T04:23:02;91532.50;;;8.66;84.79
53041;BME280;39326;42.650;23.248;2022-11-18T04:25:28;91537.47;;;8.64;84.81
53041;BME280;39326;42.650;23.248;2022-11-18T04:27:53;91537.47;;;8.60;85.53
53041;BME280;39326;42.650;23.248;2022-11-18T04:30:19;91537.38;;;8.71;84.63
53041;BME280;39326;42.650;23.248;2022-11-18T04:32:45;91532.41;;;8.73;84.42
53041;BME280;39326;42.650;23.248;2022-11-18T04:35:10;91535.19;;;8.62;84.20
53041;BME280;39326;42.650;23.248;2022-11-18T04:37:35;91542.31;;;8.72;84.10
53041;BME280;39326;42.650;23.248;2022-11-18T04:40:01;91543.84;;;8.70;83.87
53041;BME280;39326;42.650;23.248;2022-11-18T04:42:27;91557.91;;;8.70;83.38
53041;BME280;39326;42.650;23.248;2022-11-18T04:44:52;91557.97;;;8.63;83.97
53041;BME280;39326;42.650;23.248;2022-11-18T04:47:18;91550.75;;;8.64;84.31
53041;BME280;39326;42.650;23.248;2022-11-18T04:49:43;91551.94;;;8.59;84.18
53041;BME280;39326;42.650;23.248;2022-11-18T04:52:09;91551.13;;;8.62;83.59
53041;BME280;39326;42.650;23.248;2022-11-18T04:54:34;91553.34;;;8.67;83.61
53041;BME280;39326;42.650;23.248;2022-11-18T04:57:00;91560.22;;;8.65;83.59
53041;BME280;39326;42.650;23.248;2022-11-18T04:59:28;91558.75;;;8.60;83.94
53041;BME280;39326;42.650;23.248;2022-11-18T05:01:54;91557.66;;;8.58;83.50
53041;BME280;39326;42.650;23.248;2022-11-18T05:04:25;91550.50;;;8.51;83.87
53041;BME280;39326;42.650;23.248;2022-11-18T05:06:51;91550.94;;;8.39;83.35
53041;BME280;39326;42.650;23.248;2022-11-18T05:09:17;91554.97;;;8.09;84.25
53041;BME280;39326;42.650;23.248;2022-11-18T05:11:43;91545.59;;;7.94;84.47
53041;BME280;39326;42.650;23.248;2022-11-18T05:14:28;91554.28;;;8.02;84.42
53041;BME280;39326;42.650;23.248;2022-11-18T05:16:55;91547.50;;;7.93;85.05
53041;BME280;39326;42.650;23.248;2022-11-18T05:19:21;91554.06;;;7.78;85.73
53041;BME280;39326;42.650;23.248;2022-11-18T05:21:46;91553.59;;;7.90;84.91
53041;BME280;39326;42.650;23.248;2022-11-18T05:24:12;91557.34;;;7.97;84.97
53041;BME280;39326;42.650;23.248;2022-11-18T05:26:37;91552.03;;;7.93;85.55
53041;BME280;39326;42.650;23.248;2022-11-18T05:29:03;91555.03;;;8.02;84.92
53041;BME280;39326;42.650;23.248;2022-11-18T05:31:28;91554.56;;;8.11;85.03
53041;BME280;39326;42.650;23.248;2022-11-18T05:33:54;91555.78;;;8.03;85.84
53041;BME280;39326;42.650;23.248;2022-11-18T05:36:20;91559.97;;;8.00;85.70
53041;BME280;39326;42.650;23.248;2022-11-18T05:38:46;91569.00;;;8.13;84.80
53041;BME280;39326;42.650;23.248;2022-11-18T05:41:11;91565.19;;;8.14;85.28
53041;BME280;39326;42.650;23.248;2022-11-18T05:44:00;91572.34;;;8.21;84.91
53041;BME280;39326;42.650;23.248;2022-11-18T05:46:26;91560.16;;;8.27;84.67
53041;BME280;39326;42.650;23.248;2022-11-18T05:48:52;91554.03;;;8.30;84.53
53041;BME280;39326;42.650;23.248;2022-11-18T05:51:17;91555.19;;;8.33;84.70
53041;BME280;39326;42.650;23.248;2022-11-18T05:53:43;91556.69;;;8.30;84.52
53041;BME280;39326;42.650;23.248;2022-11-18T05:56:24;91558.66;;;8.26;85.14
53041;BME280;39326;42.650;23.248;2022-11-18T05:58:52;91562.44;;;8.25;84.80
53041;BME280;39326;42.650;23.248;2022-11-18T06:01:21;91565.13;;;8.18;85.17
53041;BME280;39326;42.650;23.248;2022-11-18T06:03:48;91558.78;;;8.05;85.97
53041;BME280;39326;42.650;23.248;2022-11-18T06:06:16;91558.44;;;7.99;85.37
53041;BME280;39326;42.650;23.248;2022-11-18T06:08:49;91558.41;;;8.06;85.47
53041;BME280;39326;42.650;23.248;2022-11-18T06:11:17;91557.63;;;8.09;84.96
53041;BME280;39326;42.650;23.248;2022-11-18T06:13:49;91553.41;;;8.15;85.21
53041;BME280;39326;42.650;23.248;2022-11-18T06:16:20;91550.69;;;8.23;84.92
53041;BME280;39326;42.650;23.248;2022-11-18T06:18:48;91562.88;;;8.20;84.98
53041;BME280;39326;42.650;23.248;2022-11-18T06:21:13;91557.91;;;8.26;84.22
53041;BME280;39326;42.650;23.248;2022-11-18T06:23:40;91554.50;;;8.22;84.32
53041;BME280;39326;42.650;23.248;2022-11-18T06:26:07;91554.84;;;8.27;83.61
53041;BME280;39326;42.650;23.248;2022-11-18T06:28:34;91541.56;;;8.24;84.11
53041;BME280;39326;42.650;23.248;2022-11-18T06:31:00;91540.94;;;8.09;84.62
53041;BME280;39326;42.650;23.248;2022-11-18T06:33:25;91547.34;;;8.15;84.10
53041;BME280;39326;42.650;23.248;2022-11-18T06:35:51;91545.81;;;8.17;84.24
53041;BME280;39326;42.650;23.248;2022-11-18T06:38:16;91556.00;;;8.23;84.07
53041;BME280;39326;42.650;23.248;2022-11-18T06:40:42;91540.88;;;8.16;84.08
53041;BME280;39326;42.650;23.248;2022-11-18T06:43:10;91544.63;;;8.22;84.23
53041;BME280;39326;42.650;23.248;2022-11-18T06:46:02;91538.84;;;8.31;83.81
53041;BME280;39326;42.650;23.248;2022-11-18T06:48:47;91544.91;;;8.35;84.28
53041;BME280;39326;42.650;23.248;2022-11-18T06:51:12;91551.06;;;8.25;84.58
53041;BME280;39326;42.650;23.248;2022-11-18T06:53:38;91548.03;;;8.26;84.97
53041;BME280;39326;42.650;23.248;2022-11-18T06:56:05;91544.56;;;8.33;84.91
53041;BME280;39326;42.650;23.248;2022-11-18T06:58:31;91544.88;;;8.38;84.86
53041;BME280;39326;42.650;23.248;2022-11-18T07:00:56;91557.72;;;8.47;84.66
53041;BME280;39326;42.650;23.248;2022-11-18T07:03:22;91544.81;;;8.49;85.13
53041;BME280;39326;42.650;23.248;2022-11-18T07:05:47;91550.03;;;8.56;85.16
53041;BME280;39326;42.650;23.248;2022-11-18T07:08:13;91543.13;;;8.66;85.09
53041;BME280;39326;42.650;23.248;2022-11-18T07:10:38;91549.72;;;8.51;86.24
53041;BME280;39326;42.650;23.248;2022-11-18T07:13:03;91543.47;;;8.71;85.28
53041;BME280;39326;42.650;23.248;2022-11-18T07:15:29;91538.41;;;8.81;85.59
53041;BME280;39326;42.650;23.248;2022-11-18T07:17:54;91525.44;;;8.86;85.25
53041;BME280;39326;42.650;23.248;2022-11-18T07:20:19;91509.25;;;9.08;84.54
53041;BME280;39326;42.650;23.248;2022-11-18T07:22:45;91507.25;;;9.15;84.52
53041;BME280;39326;42.650;23.248;2022-11-18T07:25:10;91503.31;;;9.27;84.49
53041;BME280;39326;42.650;23.248;2022-11-18T07:27:36;91506.13;;;9.43;84.18
53041;BME280;39326;42.650;23.248;2022-11-18T07:30:01;91508.31;;;9.52;83.91
53041;BME280;39326;42.650;23.248;2022-11-18T07:32:27;91513.22;;;9.26;85.40
53041;BME280;39326;42.650;23.248;2022-11-18T07:34:52;91505.81;;;9.38;84.88
53041;BME280;39326;42.650;23.248;2022-11-18T07:37:17;91513.66;;;9.21;85.26
53041;BME280;39326;42.650;23.248;2022-11-18T07:39:43;91489.53;;;9.05;85.41
53041;BME280;39326;42.650;23.248;2022-11-18T07:42:08;91503.88;;;9.11;85.47
53041;BME280;39326;42.650;23.248;2022-11-18T07:44:34;91496.44;;;8.99;86.07
53041;BME280;39326;42.650;23.248;2022-11-18T07:46:59;91501.31;;;9.04;86.01
53041;BME280;39326;42.650;23.248;2022-11-18T07:49:24;91513.81;;;9.07;86.20
53041;BME280;39326;42.650;23.248;2022-11-18T07:51:50;91527.28;;;8.93;87.66
53041;BME280;39326;42.650;23.248;2022-11-18T07:54:16;91531.59;;;9.14;87.40
53041;BME280;39326;42.650;23.248;2022-11-18T07:56:41;91527.41;;;9.13;87.24
53041;BME280;39326;42.650;23.248;2022-11-18T07:59:07;91537.94;;;9.23;86.64
53041;BME280;39326;42.650;23.248;2022-11-18T08:01:33;91550.09;;;9.24;86.86
53041;BME280;39326;42.650;23.248;2022-11-18T08:04:07;91554.22;;;9.29;87.01
53041;BME280;39326;42.650;23.248;2022-11-18T08:06:33;91558.50;;;9.50;87.03
53041;BME280;39326;42.650;23.248;2022-11-18T08:08:59;91567.97;;;9.54;86.85
53041;BME280;39326;42.650;23.248;2022-11-18T08:11:25;91558.47;;;9.53;86.45
53041;BME280;39326;42.650;23.248;2022-11-18T08:13:50;91547.38;;;9.59;86.28
53041;BME280;39326;42.650;23.248;2022-11-18T08:16:20;91553.25;;;9.46;86.41
53041;BME280;39326;42.650;23.248;2022-11-18T08:18:46;91539.41;;;9.28;86.89
53041;BME280;39326;42.650;23.248;2022-11-18T08:21:13;91538.81;;;9.44;86.74
53041;BME280;39326;42.650;23.248;2022-11-18T08:23:39;91532.72;;;9.47;87.02
53041;BME280;39326;42.650;23.248;2022-11-18T08:26:07;91533.19;;;9.38;87.82
53041;BME280;39326;42.650;23.248;2022-11-18T08:28:34;91526.47;;;9.57;87.38
53041;BME280;39326;42.650;23.248;2022-11-18T08:30:59;91524.31;;;9.18;89.21
53041;BME280;39326;42.650;23.248;2022-11-18T08:33:25;91518.81;;;9.32;88.60
53041;BME280;39326;42.650;23.248;2022-11-18T08:35:51;91512.81;;;9.28;89.32
53041;BME280;39326;42.650;23.248;2022-11-18T08:38:16;91509.97;;;9.42;88.53
53041;BME280;39326;42.650;23.248;2022-11-18T08:40:44;91495.56;;;9.67;88.35
53041;BME280;39326;42.650;23.248;2022-11-18T08:43:10;91503.97;;;9.89;88.85
53041;BME280;39326;42.650;23.248;2022-11-18T08:45:38;91494.56;;;10.07;88.81
53041;BME280;39326;42.650;23.248;2022-11-18T08:48:03;91490.63;;;10.39;88.01
53041;BME280;39326;42.650;23.248;2022-11-18T08:50:29;91482.38;;;10.33;87.67
53041;BME280;39326;42.650;23.248;2022-11-18T08:52:54;91477.06;;;10.53;86.69
53041;BME280;39326;42.650;23.248;2022-11-18T08:55:20;91481.44;;;10.20;87.70
53041;BME280;39326;42.650;23.248;2022-11-18T08:57:45;91477.97;;;10.47;86.85
53041;BME280;39326;42.650;23.248;2022-11-18T09:00:12;91461.53;;;10.48;86.13
53041;BME280;39326;42.650;23.248;2022-11-18T09:02:38;91478.59;;;10.31;85.45
53041;BME280;39326;42.650;23.248;2022-11-18T09:05:04;91458.38;;;10.33;85.71
53041;BME280;39326;42.650;23.248;2022-11-18T09:07:29;91453.69;;;10.41;85.34
53041;BME280;39326;42.650;23.248;2022-11-18T09:09:55;91455.06;;;10.26;85.65
53041;BME280;39326;42.650;23.248;2022-11-18T09:12:20;91455.50;;;10.44;85.43
53041;BME280;39326;42.650;23.248;2022-11-18T09:14:46;91453.38;;;10.79;85.79
53041;BME280;39326;42.650;23.248;2022-11-18T09:17:12;91457.06;;;10.85;85.30
53041;BME280;39326;42.650;23.248;2022-11-18T09:19:38;91444.84;;;11.24;84.79
53041;BME280;39326;42.650;23.248;2022-11-18T09:22:04;91441.00;;;11.61;83.97
53041;BME280;39326;42.650;23.248;2022-11-18T09:24:30;91451.09;;;11.33;83.13
53041;BME280;39326;42.650;23.248;2022-11-18T09:26:55;91440.69;;;11.59;82.31
53041;BME280;39326;42.650;23.248;2022-11-18T09:29:21;91436.19;;;11.88;81.74
53041;BME280;39326;42.650;23.248;2022-11-18T09:31:51;91443.03;;;11.89;81.33
53041;BME280;39326;42.650;23.248;2022-11-18T09:34:17;91449.00;;;12.26;80.67
53041;BME280;39326;42.650;23.248;2022-11-18T09:36:43;91429.34;;;12.49;80.18
53041;BME280;39326;42.650;23.248;2022-11-18T09:39:08;91431.69;;;12.47;78.68
53041;BME280;39326;42.650;23.248;2022-11-18T09:41:42;91406.84;;;12.92;77.58
53041;BME280;39326;42.650;23.248;2022-11-18T09:44:44;91401.41;;;13.34;74.13
53041;BME280;39326;42.650;23.248;2022-11-18T09:47:24;91382.88;;;13.52;72.47
53041;BME280;39326;42.650;23.248;2022-11-18T09:49:51;91391.56;;;13.69;73.82
53041;BME280;39326;42.650;23.248;2022-11-18T09:54:43;91384.34;;;13.91;72.20
53041;BME280;39326;42.650;23.248;2022-11-18T09:57:23;91377.09;;;13.92;69.49
53041;BME280;39326;42.650;23.248;2022-11-18T09:59:49;91379.75;;;13.53;71.07
53041;BME280;39326;42.650;23.248;2022-11-18T10:04:46;91376.53;;;13.97;70.79
53041;BME280;39326;42.650;23.248;2022-11-18T10:07:19;91388.25;;;14.25;68.17
53041;BME280;39326;42.650;23.248;2022-11-18T10:09:47;91391.84;;;14.44;68.21
53041;BME280;39326;42.650;23.248;2022-11-18T10:15:35;91383.56;;;14.16;65.35
53041;BME280;39326;42.650;23.248;2022-11-18T10:20:57;91366.97;;;14.43;66.45
53041;BME280;39326;42.650;23.248;2022-11-18T10:23:32;91364.66;;;14.54;65.86
53041;BME280;39326;42.650;23.248;2022-11-18T10:25:59;91378.09;;;14.20;65.39
53041;BME280;39326;42.650;23.248;2022-11-18T10:28:27;91368.50;;;14.31;65.20
53041;BME280;39326;42.650;23.248;2022-11-18T10:31:08;91364.03;;;14.50;64.56
53041;BME280;39326;42.650;23.248;2022-11-18T10:33:34;91367.97;;;14.58;64.28
53041;BME280;39326;42.650;23.248;2022-11-18T10:38:41;91349.78;;;14.41;65.33
53041;BME280;39326;42.650;23.248;2022-11-18T10:41:14;91359.47;;;14.03;64.49
53041;BME280;39326;42.650;23.248;2022-11-18T10:43:55;91352.47;;;14.41;64.57
53041;BME280;39326;42.650;23.248;2022-11-18T10:51:41;91340.47;;;14.10;62.63
53041;BME280;39326;42.650;23.248;2022-11-18T10:54:08;91329.88;;;14.07;63.64
53041;BME280;39326;42.650;23.248;2022-11-18T10:56:52;91319.09;;;14.20;63.59
53041;BME280;39326;42.650;23.248;2022-11-18T10:59:30;91319.09;;;14.20;63.77
53041;BME280;39326;42.650;23.248;2022-11-18T11:02:33;91317.97;;;14.30;64.17
53041;BME280;39326;42.650;23.248;2022-11-18T11:05:21;91325.50;;;14.22;64.23
53041;BME280;39326;42.650;23.248;2022-11-18T11:08:18;91329.75;;;14.10;64.26
53041;BME280;39326;42.650;23.248;2022-11-18T11:10:55;91340.03;;;14.12;64.02
53041;BME280;39326;42.650;23.248;2022-11-18T11:13:22;91326.63;;;14.12;64.45
53041;BME280;39326;42.650;23.248;2022-11-18T11:15:50;91330.56;;;14.20;63.55
53041;BME280;39326;42.650;23.248;2022-11-18T11:18:22;91327.13;;;14.20;63.21
53041;BME280;39326;42.650;23.248;2022-11-18T11:21:14;91314.78;;;14.22;64.43
53041;BME280;39326;42.650;23.248;2022-11-18T11:23:40;91310.22;;;14.10;64.28
53041;BME280;39326;42.650;23.248;2022-11-18T11:26:44;91299.03;;;14.24;64.03
53041;BME280;39326;42.650;23.248;2022-11-18T11:29:30;91306.31;;;14.24;63.88
53041;BME280;39326;42.650;23.248;2022-11-18T11:37:50;91299.13;;;14.21;62.34
53041;BME280;39326;42.650;23.248;2022-11-18T11:56:54;91273.06;;;13.99;64.98
53041;BME280;39326;42.650;23.248;2022-11-18T12:04:51;91268.44;;;13.52;65.67
53041;BME280;39326;42.650;23.248;2022-11-18T12:07:23;91277.81;;;13.35;65.87
53041;BME280;39326;42.650;23.248;2022-11-18T12:21:07;91261.69;;;13.61;65.29
53041;BME280;39326;42.650;23.248;2022-11-18T12:23:33;91251.31;;;13.50;65.99
53041;BME280;39326;42.650;23.248;2022-11-18T12:26:08;91237.53;;;13.39;66.08
53041;BME280;39326;42.650;23.248;2022-11-18T12:28:41;91236.13;;;13.34;66.21
53041;BME280;39326;42.650;23.248;2022-11-18T12:36:37;91237.69;;;13.10;66.86
53041;BME280;39326;42.650;23.248;2022-11-18T12:41:58;91218.31;;;13.06;68.42
53041;BME280;39326;42.650;23.248;2022-11-18T12:44:45;91211.88;;;13.03;68.22
53041;BME280;39326;42.650;23.248;2022-11-18T12:47:12;91202.13;;;13.09;66.25
53041;BME280;39326;42.650;23.248;2022-11-18T12:54:54;91169.63;;;13.67;60.04
53041;BME280;39326;42.650;23.248;2022-11-18T12:57:29;91150.28;;;13.72;60.04
53041;BME280;39326;42.650;23.248;2022-11-18T12:59:56;91161.06;;;13.59;59.40
53041;BME280;39326;42.650;23.248;2022-11-18T13:02:30;91155.53;;;13.76;58.15
53041;BME280;39326;42.650;23.248;2022-11-18T13:05:08;91151.22;;;13.78;58.53
53041;BME280;39326;42.650;23.248;2022-11-18T13:08:24;91130.84;;;13.81;57.54
53041;BME280;39326;42.650;23.248;2022-11-18T13:13:34;91128.56;;;13.92;55.37
53041;BME280;39326;42.650;23.248;2022-11-18T13:16:20;91142.00;;;14.01;56.67
53041;BME280;39326;42.650;23.248;2022-11-18T13:19:06;91154.97;;;14.03;57.00
53041;BME280;39326;42.650;23.248;2022-11-18T13:21:32;91155.84;;;14.00;56.87
53041;BME280;39326;42.650;23.248;2022-11-18T13:24:19;91170.56;;;13.95;56.46
53041;BME280;39326;42.650;23.248;2022-11-18T13:26:46;91159.16;;;14.04;56.74
53041;BME280;39326;42.650;23.248;2022-11-18T13:34:47;91116.41;;;14.00;56.13
53041;BME280;39326;42.650;23.248;2022-11-18T13:37:19;91093.94;;;14.07;56.05
53041;BME280;39326;42.650;23.248;2022-11-18T13:39:46;91105.41;;;14.07;56.52
53041;BME280;39326;42.650;23.248;2022-11-18T13:42:30;91097.63;;;14.00;55.40
53041;BME280;39326;42.650;23.248;2022-11-18T13:44:59;91104.97;;;14.09;56.15
53041;BME280;39326;42.650;23.248;2022-11-18T14:01:00;91093.75;;;14.01;56.57
53041;BME280;39326;42.650;23.248;2022-11-18T14:03:44;91047.00;;;14.02;57.54
53041;BME280;39326;42.650;23.248;2022-11-18T14:06:11;91058.78;;;14.05;57.63
53041;BME280;39326;42.650;23.248;2022-11-18T14:08:38;91052.19;;;13.97;57.64
53041;BME280;39326;42.650;23.248;2022-11-18T14:11:05;91076.19;;;14.00;57.17
53041;BME280;39326;42.650;23.248;2022-11-18T14:13:46;91044.47;;;13.99;56.16
53041;BME280;39326;42.650;23.248;2022-11-18T14:18:45;91083.50;;;14.09;55.13
53041;BME280;39326;42.650;23.248;2022-11-18T14:21:11;91085.50;;;14.18;54.94
53041;BME280;39326;42.650;23.248;2022-11-18T14:23:41;91089.03;;;14.05;55.76
53041;BME280;39326;42.650;23.248;2022-11-18T14:26:07;91064.66;;;13.91;55.26
53041;BME280;39326;42.650;23.248;2022-11-18T14:28:34;91077.94;;;13.94;54.82
53041;BME280;39326;42.650;23.248;2022-11-18T14:36:29;91098.19;;;13.95;55.79
53041;BME280;39326;42.650;23.248;2022-11-18T14:38:55;91114.47;;;14.01;55.75
53041;BME280;39326;42.650;23.248;2022-11-18T14:41:21;91113.00;;;14.09;54.41
53041;BME280;39326;42.650;23.248;2022-11-18T14:44:06;91139.53;;;14.16;53.48
53041;BME280;39326;42.650;23.248;2022-11-18T14:46:33;91154.03;;;14.19;53.83
53041;BME280;39326;42.650;23.248;2022-11-18T14:49:04;91113.72;;;14.00;54.11
53041;BME280;39326;42.650;23.248;2022-11-18T14:51:30;91109.47;;;14.12;54.56
53041;BME280;39326;42.650;23.248;2022-11-18T14:53:56;91116.97;;;14.26;53.83
53041;BME280;39326;42.650;23.248;2022-11-18T14:56:24;91135.91;;;13.79;56.56
53041;BME280;39326;42.650;23.248;2022-11-18T14:58:51;91143.91;;;13.92;57.76
53041;BME280;39326;42.650;23.248;2022-11-18T15:01:16;91141.28;;;13.79;58.60
53041;BME280;39326;42.650;23.248;2022-11-18T15:03:42;91127.66;;;13.51;61.13
53041;BME280;39326;42.650;23.248;2022-11-18T15:06:14;91189.16;;;13.20;67.48
53041;BME280;39326;42.650;23.248;2022-11-18T15:08:42;91167.25;;;13.35;65.11
53041;BME280;39326;42.650;23.248;2022-11-18T15:11:08;91154.59;;;13.13;65.92
53041;BME280;39326;42.650;23.248;2022-11-18T15:13:34;91151.44;;;12.93;66.80
53041;BME280;39326;42.650;23.248;2022-11-18T15:16:01;91161.03;;;13.03;66.64